MATER UKLL (LWO)

Остані дані METAR із Аеропорта UKLL (LWO)

L'Viv, Ukraine (UKLL) 49-49N 023-57E 323M
Oct 19, 2020 - 12:00 PM EDT / 2020.10.19 1600 UTC
Wind: from the W (260 degrees) at 4 MPH (4 KT) (direction variable):0
Visibility: greater than 7 mile(s):0
Temperature: 44 F (7 C)
Dew Point: 41 F (5 C)
Relative Humidity: 87%
Pressure (altimeter): 30.24 in. Hg (1024 hPa)
ob: UKLL 191600Z 26002MPS 230V290 CAVOK 07/05 Q1024 R31/CLRD// NOSIG
cycle: 16